createdAt,value
2019-05-30T00:00:37.805Z,49
2019-05-30T00:05:37.770Z,53
2019-05-30T00:10:37.789Z,49
2019-05-30T00:15:37.780Z,45
2019-05-30T00:20:37.794Z,45
2019-05-30T00:25:37.799Z,48
2019-05-30T00:30:37.779Z,48
2019-05-30T00:35:37.794Z,45
2019-05-30T00:40:37.791Z,49
2019-05-30T00:45:37.769Z,49
2019-05-30T00:50:37.715Z,45
2019-05-30T00:55:37.852Z,49
2019-05-30T01:00:51.167Z,50
2019-05-30T01:05:37.804Z,45
2019-05-30T01:10:37.760Z,47
2019-05-30T01:15:37.715Z,45
2019-05-30T01:20:37.751Z,49
2019-05-30T01:25:37.773Z,50
2019-05-30T01:30:37.746Z,57
2019-05-30T01:35:37.731Z,53
2019-05-30T01:40:37.822Z,52
2019-05-30T01:45:37.747Z,54
2019-05-30T01:50:37.656Z,56
2019-05-30T01:55:37.717Z,44
2019-05-30T02:00:37.686Z,48
2019-05-30T02:05:37.705Z,52
2019-05-30T02:10:37.704Z,55
2019-05-30T02:15:37.721Z,49
2019-05-30T02:20:37.715Z,45
2019-05-30T02:25:37.695Z,43
2019-05-30T02:30:37.652Z,42
2019-05-30T02:35:37.689Z,41
2019-05-30T02:40:37.657Z,48
2019-05-30T02:45:37.665Z,43
2019-05-30T02:50:37.676Z,45
2019-05-30T02:55:37.678Z,32
2019-05-30T03:00:37.630Z,39
2019-05-30T03:05:37.674Z,28
2019-05-30T03:10:37.704Z,30
2019-05-30T03:15:37.661Z,32
2019-05-30T03:20:37.686Z,28
2019-05-30T03:25:37.657Z,28
2019-05-30T03:30:38.365Z,27
2019-05-30T03:35:50.120Z,24
2019-05-30T03:40:40.018Z,26
2019-05-30T03:45:37.674Z,33
2019-05-30T03:50:37.650Z,38
2019-05-30T03:55:37.616Z,31
2019-05-30T04:00:37.630Z,32
2019-05-30T04:05:37.594Z,31
2019-05-30T04:10:37.706Z,33
2019-05-30T04:15:37.665Z,36
2019-05-30T04:20:37.590Z,40
2019-05-30T04:25:37.621Z,44
2019-05-30T04:30:37.615Z,44
2019-05-30T04:35:37.576Z,44
2019-05-30T04:40:37.598Z,44
2019-05-30T04:45:37.557Z,43
2019-05-30T04:50:37.534Z,45
2019-05-30T04:55:37.552Z,38
2019-05-30T05:00:37.558Z,37
2019-05-30T05:05:37.527Z,38
2019-05-30T05:10:37.607Z,33
2019-05-30T05:15:37.555Z,37
2019-05-30T05:20:40.341Z,35
2019-05-30T05:25:37.511Z,32
2019-05-30T05:30:38.645Z,31
2019-05-30T05:35:37.541Z,33
2019-05-30T05:40:37.521Z,32
2019-05-30T05:45:37.564Z,34
2019-05-30T05:50:41.702Z,38
2019-05-30T05:55:37.506Z,36
2019-05-30T06:00:38.279Z,37
2019-05-30T06:05:52.090Z,29
2019-05-30T06:10:38.238Z,27
2019-05-30T06:15:38.264Z,27
2019-05-30T06:20:38.269Z,28
2019-05-30T06:25:41.034Z,36
2019-05-30T06:30:38.228Z,37
2019-05-30T06:35:38.290Z,41
2019-05-30T06:40:40.289Z,44
2019-05-30T06:45:38.594Z,41
2019-05-30T06:50:39.158Z,39
2019-05-30T06:55:39.569Z,43
2019-05-30T07:00:39.153Z,43
2019-05-30T07:05:43.662Z,41
2019-05-30T07:10:39.345Z,41
2019-05-30T07:15:40.601Z,46
2019-05-30T07:20:38.191Z,50
2019-05-30T07:25:38.301Z,50
2019-05-30T07:30:38.369Z,54
2019-05-30T07:35:38.288Z,52
2019-05-30T07:40:39.044Z,55
2019-05-30T07:45:39.371Z,55
2019-05-30T07:50:38.893Z,53
2019-05-30T07:55:39.435Z,56
2019-05-30T08:00:39.854Z,49
2019-05-30T08:05:39.042Z,50
2019-05-30T08:10:38.294Z,52
2019-05-30T08:15:47.075Z,47
2019-05-30T08:20:38.180Z,50
2019-05-30T08:25:38.699Z,52
2019-05-30T08:30:38.845Z,49
2019-05-30T08:35:56.316Z,49
2019-05-30T08:40:39.899Z,64
2019-05-30T08:45:38.236Z,55
2019-05-30T08:50:44.940Z,50
2019-05-30T08:55:38.653Z,51
2019-05-30T09:00:38.135Z,52
2019-05-30T09:05:38.672Z,50
2019-05-30T09:10:42.545Z,51
2019-05-30T09:15:40.930Z,49
2019-05-30T09:20:41.984Z,50
2019-05-30T09:25:41.489Z,53
2019-05-30T09:30:39.558Z,52
2019-05-30T09:35:38.462Z,51
2019-05-30T09:40:39.128Z,51
2019-05-30T09:45:38.073Z,57
2019-05-30T09:50:38.099Z,50
2019-05-30T09:55:38.149Z,47
2019-05-30T10:00:38.148Z,52
2019-05-30T10:05:38.078Z,47
2019-05-30T10:10:38.115Z,45
2019-05-30T10:15:38.160Z,49
2019-05-30T10:20:38.079Z,57
2019-05-30T10:25:38.087Z,55
2019-05-30T10:30:38.054Z,49
2019-05-30T10:35:38.519Z,50
2019-05-30T10:40:56.625Z,52
2019-05-30T10:45:51.243Z,47
2019-05-30T10:50:50.131Z,50
2019-05-30T10:55:49.994Z,43
2019-05-30T11:00:50.693Z,49
2019-05-30T11:05:49.174Z,51
2019-05-30T11:10:48.575Z,49
2019-05-30T11:15:51.590Z,48
2019-05-30T11:20:47.822Z,44
2019-05-30T11:25:48.535Z,52
2019-05-30T11:30:48.589Z,48
2019-05-30T11:35:48.758Z,40
2019-05-30T11:40:47.606Z,43
2019-05-30T11:45:47.572Z,49
2019-05-30T11:50:47.577Z,47
2019-05-30T11:55:47.588Z,53
2019-05-30T12:00:47.569Z,46
2019-05-30T12:05:47.525Z,43
2019-05-30T12:10:47.532Z,46
2019-05-30T12:15:47.557Z,39
2019-05-30T12:20:49.388Z,47
2019-05-30T12:25:47.566Z,49
2019-05-30T12:31:10.954Z,46
2019-05-30T12:35:47.562Z,48
2019-05-30T12:40:47.517Z,47
2019-05-30T12:45:47.528Z,42
2019-05-30T12:50:47.490Z,38
2019-05-30T12:55:47.534Z,49
2019-05-30T13:00:47.526Z,29
2019-05-30T13:05:47.534Z,45
2019-05-30T13:10:47.519Z,42
2019-05-30T13:15:47.499Z,44
2019-05-30T13:20:47.581Z,42
2019-05-30T13:25:47.506Z,41
2019-05-30T13:30:47.563Z,37
2019-05-30T13:35:47.539Z,38
2019-05-30T13:40:47.526Z,39
2019-05-30T13:45:47.491Z,41
2019-05-30T13:50:47.458Z,42
2019-05-30T13:55:47.479Z,42
2019-05-30T14:00:47.444Z,46
2019-05-30T14:05:47.526Z,38
2019-05-30T14:10:51.606Z,44
2019-05-30T14:15:47.560Z,46
2019-05-30T14:20:47.474Z,41
2019-05-30T14:25:47.441Z,37
2019-05-30T14:30:47.428Z,39
2019-05-30T14:35:47.450Z,33
2019-05-30T14:40:47.399Z,39
2019-05-30T14:45:47.399Z,44
2019-05-30T14:50:47.447Z,31
2019-05-30T14:55:47.417Z,34
2019-05-30T15:00:47.419Z,37
2019-05-30T15:05:47.445Z,42
2019-05-30T15:10:47.412Z,40
2019-05-30T15:15:47.372Z,43
2019-05-30T15:20:47.427Z,29
2019-05-30T15:25:47.403Z,41
2019-05-30T15:30:47.449Z,43
2019-05-30T15:35:47.425Z,39
2019-05-30T15:40:47.426Z,36
2019-05-30T15:45:47.368Z,35
2019-05-30T15:50:47.387Z,38
2019-05-30T15:55:47.398Z,35
2019-05-30T16:00:47.378Z,38
2019-05-30T16:05:48.460Z,35
2019-05-30T16:10:53.670Z,36
2019-05-30T16:15:53.664Z,36
2019-05-30T16:20:53.643Z,32
2019-05-30T16:25:53.654Z,34
2019-05-30T16:30:53.670Z,38
2019-05-30T16:35:53.694Z,37
2019-05-30T16:40:53.817Z,38
2019-05-30T16:45:53.820Z,33
2019-05-30T16:50:53.641Z,36
2019-05-30T16:55:53.709Z,41
2019-05-30T17:00:53.620Z,39
2019-05-30T17:05:55.631Z,35
2019-05-30T17:10:53.667Z,39
2019-05-30T17:15:53.642Z,36
2019-05-30T17:20:53.623Z,40
2019-05-30T17:25:53.647Z,35
2019-05-30T17:30:53.680Z,40
2019-05-30T17:35:53.691Z,40
2019-05-30T17:40:57.679Z,42
2019-05-30T17:45:53.718Z,37
2019-05-30T17:50:53.610Z,41
2019-05-30T17:55:53.576Z,37
2019-05-30T18:00:56.320Z,38
2019-05-30T18:05:53.603Z,38
2019-05-30T18:11:01.990Z,36
2019-05-30T18:15:53.549Z,37
2019-05-30T18:20:56.821Z,36
2019-05-30T18:25:53.603Z,40
2019-05-30T18:30:53.600Z,39
2019-05-30T18:35:53.571Z,33
2019-05-30T18:41:02.079Z,38
2019-05-30T18:45:53.567Z,31
2019-05-30T18:50:53.567Z,35
2019-05-30T18:55:53.523Z,37
2019-05-30T19:00:53.532Z,32
2019-05-30T19:05:56.642Z,34
2019-05-30T19:10:53.566Z,37
2019-05-30T19:15:53.550Z,27
2019-05-30T19:20:53.579Z,28
2019-05-30T19:25:54.634Z,40
2019-05-30T19:30:53.673Z,42
2019-05-30T19:35:55.870Z,48
2019-05-30T19:40:53.552Z,41
2019-05-30T19:45:53.495Z,37
2019-05-30T19:50:53.490Z,40
2019-05-30T19:55:53.521Z,40
2019-05-30T20:01:06.577Z,35
2019-05-30T20:05:53.517Z,35
2019-05-30T20:10:53.480Z,38
2019-05-30T20:15:53.487Z,34
2019-05-30T20:21:05.437Z,35
2019-05-30T20:25:54.284Z,40
2019-05-30T20:30:53.445Z,30
2019-05-30T20:35:53.449Z,36
2019-05-30T20:40:53.503Z,38
2019-05-30T20:45:56.981Z,41
2019-05-30T20:50:53.595Z,35
2019-05-30T20:55:53.631Z,35
2019-05-30T21:00:54.032Z,29
2019-05-30T21:05:54.269Z,28
2019-05-30T21:10:53.648Z,28
2019-05-30T21:15:53.989Z,27
2019-05-30T21:20:54.517Z,26
2019-05-30T21:25:53.718Z,29
2019-05-30T21:30:53.707Z,27
2019-05-30T21:35:54.436Z,30
2019-05-30T21:40:54.916Z,32
2019-05-30T21:45:53.495Z,28
2019-05-30T21:50:56.375Z,30
2019-05-30T21:55:54.369Z,25
2019-05-30T22:00:55.158Z,29
2019-05-30T22:05:58.187Z,28
2019-05-30T22:10:53.886Z,23
2019-05-30T22:15:54.450Z,31
2019-05-30T22:20:54.211Z,28
2019-05-30T22:25:55.137Z,25
2019-05-30T22:30:54.975Z,39
2019-05-30T22:35:53.412Z,24
2019-05-30T22:40:54.351Z,29
2019-05-30T22:45:54.577Z,23
2019-05-30T22:50:53.386Z,25
2019-05-30T22:55:57.382Z,22
2019-05-30T23:00:54.315Z,26
2019-05-30T23:05:53.668Z,23
2019-05-30T23:10:53.856Z,22
2019-05-30T23:15:54.866Z,33
2019-05-30T23:25:55.506Z,24
2019-05-30T23:30:54.094Z,28
2019-05-30T23:35:54.633Z,20
2019-05-30T23:40:55.200Z,24
2019-05-30T23:45:55.810Z,25
2019-05-30T23:50:53.999Z,22
2019-05-30T23:55:54.426Z,23
